Time;durP1;ratioP1;P1;durP2;ratioP2;P2;SDS_P1;SDS_P2;PMS_P1;PMS_P2;Temp;Humidity;BMP_temperature;BMP_pressure;BME280_temperature;BME280_humidity;BME280_pressure;Samples;Min_cycle;Max_cycle;Signal;HPM_P1;HPM_P2
2023/01/28 00:01:44;;;;;;;12.77;5.22;;;;;;;;;;6136385;23;20103;-64
2023/01/28 00:04:11;;;;;;;13.48;4.85;;;;;;;;;;6154144;23;20237;-65
2023/01/28 00:06:45;;;;;;;13.63;5.03;;;;;;;;;;6155091;23;20024;-65
2023/01/28 00:09:13;;;;;;;16.17;5.38;;;;;;;;;;6120662;23;20017;-65
2023/01/28 00:11:41;;;;;;;11.95;4.70;;;;;;;;;;6152086;23;20021;-65
2023/01/28 00:14:10;;;;;;;13.45;5.20;;;;;;;;;;6143869;23;20041;-66
2023/01/28 00:16:38;;;;;;;15.00;4.80;;;;;;;;;;6160249;23;20063;-65
2023/01/28 00:19:06;;;;;;;10.83;4.03;;;;;;;;;;6120127;23;20708;-65
2023/01/28 00:21:34;;;;;;;9.90;3.72;;;;;;;;;;6146938;23;20009;-65
2023/01/28 00:24:05;;;;;;;10.32;3.70;;;;;;;;;;6152622;23;20021;-66
2023/01/28 00:26:33;;;;;;;12.98;3.90;;;;;;;;;;6159005;23;20456;-66
2023/01/28 00:29:01;;;;;;;13.07;3.72;;;;;;;;;;6148043;23;20492;-65
2023/01/28 00:31:29;;;;;;;9.97;3.63;;;;;;;;;;6161835;23;20024;-65
2023/01/28 00:33:57;;;;;;;10.82;3.47;;;;;;;;;;6144876;23;20020;-64
2023/01/28 00:36:25;;;;;;;9.10;2.97;;;;;;;;;;6147958;23;20013;-66
2023/01/28 00:38:54;;;;;;;13.40;3.65;;;;;;;;;;6149752;23;20080;-66
2023/01/28 00:41:23;;;;;;;11.88;3.33;;;;;;;;;;6155160;23;20060;-65
2023/01/28 00:43:52;;;;;;;15.70;3.60;;;;;;;;;;6142719;23;20337;-65
2023/01/28 00:46:20;;;;;;;13.48;3.70;;;;;;;;;;6159573;23;20013;-65
2023/01/28 00:48:48;;;;;;;10.23;3.58;;;;;;;;;;6144713;23;20028;-65
2023/01/28 00:51:17;;;;;;;13.60;3.83;;;;;;;;;;6159077;23;20068;-60
2023/01/28 00:53:44;;;;;;;12.27;4.05;;;;;;;;;;6150910;23;20068;-65
2023/01/28 00:56:13;;;;;;;15.73;4.83;;;;;;;;;;6156748;23;20017;-67
2023/01/28 00:58:42;;;;;;;15.15;4.40;;;;;;;;;;6158941;23;20017;-66
2023/01/28 01:01:11;;;;;;;8.93;4.03;;;;;;;;;;6145934;23;20013;-65
2023/01/28 01:03:39;;;;;;;11.95;4.05;;;;;;;;;;6161047;23;20013;-65
2023/01/28 01:06:07;;;;;;;10.65;4.07;;;;;;;;;;6151762;23;20017;-66
2023/01/28 01:08:38;;;;;;;14.57;4.57;;;;;;;;;;6157096;23;20017;-56
2023/01/28 01:11:06;;;;;;;10.82;4.80;;;;;;;;;;6151833;23;20535;-68
2023/01/28 01:13:34;;;;;;;11.60;4.32;;;;;;;;;;6158334;23;20013;-66
2023/01/28 01:16:05;;;;;;;15.32;4.15;;;;;;;;;;6137961;23;20017;-65
2023/01/28 01:18:33;;;;;;;15.05;5.03;;;;;;;;;;6157101;23;20022;-65
2023/01/28 01:21:01;;;;;;;14.83;4.53;;;;;;;;;;6149521;23;20341;-65
2023/01/28 01:23:30;;;;;;;13.35;4.53;;;;;;;;;;6162276;23;20076;-65
2023/01/28 01:25:58;;;;;;;12.93;4.13;;;;;;;;;;6132794;23;20071;-65
2023/01/28 01:28:26;;;;;;;14.85;4.78;;;;;;;;;;6155650;23;20025;-65
2023/01/28 01:30:58;;;;;;;16.40;4.90;;;;;;;;;;6145997;23;20051;-65
2023/01/28 01:33:28;;;;;;;12.67;4.27;;;;;;;;;;6155183;23;20098;-65
2023/01/28 01:35:55;;;;;;;9.93;4.18;;;;;;;;;;6145585;23;20459;-64
2023/01/28 01:38:28;;;;;;;23.30;7.07;;;;;;;;;;6158872;23;20526;-66
2023/01/28 01:40:57;;;;;;;42.30;11.77;;;;;;;;;;6155268;23;20067;-63
2023/01/28 01:43:26;;;;;;;36.10;9.40;;;;;;;;;;6151871;23;20044;-65
2023/01/28 01:45:56;;;;;;;57.20;13.23;;;;;;;;;;6153393;23;20017;-66
2023/01/28 01:48:29;;;;;;;59.85;13.48;;;;;;;;;;6149486;23;20021;-66
2023/01/28 01:51:01;;;;;;;61.97;15.70;;;;;;;;;;6157224;23;20045;-65
2023/01/28 01:53:29;;;;;;;69.80;15.00;;;;;;;;;;6152356;23;20342;-64
2023/01/28 01:55:59;;;;;;;47.95;12.85;;;;;;;;;;6164325;23;20017;-66
2023/01/28 01:58:29;;;;;;;42.60;11.23;;;;;;;;;;6149235;23;20068;-64
2023/01/28 02:00:57;;;;;;;38.50;9.32;;;;;;;;;;6158364;23;20017;-65
2023/01/28 02:03:29;;;;;;;38.05;10.43;;;;;;;;;;6147580;23;20395;-66
2023/01/28 02:05:57;;;;;;;30.83;8.98;;;;;;;;;;6144545;23;20075;-65
2023/01/28 02:08:26;;;;;;;30.90;10.38;;;;;;;;;;6143098;23;20113;-67
2023/01/28 02:10:55;;;;;;;37.80;12.27;;;;;;;;;;6152477;23;20024;-65
2023/01/28 02:13:25;;;;;;;47.25;14.18;;;;;;;;;;6149757;23;20092;-66
2023/01/28 02:15:53;;;;;;;52.85;15.57;;;;;;;;;;6164986;23;20049;-66
2023/01/28 02:18:21;;;;;;;41.53;14.13;;;;;;;;;;6142979;23;20569;-65
2023/01/28 02:20:59;;;;;;;30.55;8.88;;;;;;;;;;6157436;23;20075;-65
2023/01/28 02:23:35;;;;;;;24.87;7.87;;;;;;;;;;6146880;23;20420;-65
2023/01/28 02:26:22;;;;;;;30.42;8.10;;;;;;;;;;6128886;23;20425;-65
2023/01/28 02:28:53;;;;;;;24.13;7.78;;;;;;;;;;6150412;23;20017;-65
2023/01/28 02:31:24;;;;;;;19.13;7.82;;;;;;;;;;6156570;23;20045;-65
2023/01/28 02:33:56;;;;;;;20.45;7.78;;;;;;;;;;6158346;23;20017;-66
2023/01/28 02:36:27;;;;;;;28.60;8.60;;;;;;;;;;6152517;23;20068;-65
2023/01/28 02:38:56;;;;;;;15.60;6.57;;;;;;;;;;6157836;23;20103;-66
2023/01/28 02:41:30;;;;;;;18.70;6.90;;;;;;;;;;6156403;23;20518;-65
2023/01/28 02:44:01;;;;;;;19.77;6.80;;;;;;;;;;6146172;23;20460;-66
2023/01/28 02:49:27;;;;;;;22.27;6.23;;;;;;;;;;6162026;23;20041;-65
2023/01/28 02:52:05;;;;;;;19.10;6.28;;;;;;;;;;6125655;23;20711;-64
2023/01/28 02:54:36;;;;;;;17.45;6.75;;;;;;;;;;6158958;23;20013;-66
2023/01/28 02:57:09;;;;;;;17.45;6.78;;;;;;;;;;6161505;23;20017;-66
2023/01/28 02:59:42;;;;;;;20.17;6.60;;;;;;;;;;6150301;23;20021;-65
2023/01/28 03:02:12;;;;;;;17.10;6.77;;;;;;;;;;6153033;23;20021;-65
2023/01/28 03:04:44;;;;;;;18.50;7.43;;;;;;;;;;6158024;23;20013;-65
2023/01/28 03:07:16;;;;;;;21.95;7.07;;;;;;;;;;6154153;23;20060;-66
2023/01/28 03:09:45;;;;;;;15.52;5.95;;;;;;;;;;6155383;23;20052;-65
2023/01/28 03:37:27;;;;;;;11.20;4.45;;;;;;;;;;6156429;23;20049;-64
2023/01/28 03:40:01;;;;;;;14.85;4.53;;;;;;;;;;6152024;23;20047;-65
2023/01/28 03:42:30;;;;;;;16.27;5.47;;;;;;;;;;6130334;23;20020;-64
2023/01/28 03:45:00;;;;;;;15.65;5.75;;;;;;;;;;6143700;23;20135;-64
2023/01/28 03:47:29;;;;;;;17.33;6.15;;;;;;;;;;6155526;23;20052;-65
2023/01/28 03:50:01;;;;;;;13.23;5.20;;;;;;;;;;6153367;23;20573;-65
2023/01/28 03:52:30;;;;;;;12.93;6.15;;;;;;;;;;6153204;23;20013;-65
2023/01/28 03:54:58;;;;;;;15.23;6.17;;;;;;;;;;6145645;23;20032;-64
2023/01/28 03:57:27;;;;;;;19.08;6.07;;;;;;;;;;6151137;23;20044;-65
2023/01/28 03:59:54;;;;;;;18.83;6.85;;;;;;;;;;6154321;23;20067;-65
2023/01/28 04:02:22;;;;;;;19.33;6.00;;;;;;;;;;6157184;23;20048;-65
2023/01/28 04:04:51;;;;;;;14.45;6.07;;;;;;;;;;6146751;23;20116;-64
2023/01/28 04:07:19;;;;;;;19.33;6.80;;;;;;;;;;6156207;23;20017;-64
2023/01/28 04:09:47;;;;;;;17.23;6.35;;;;;;;;;;6143332;23;20382;-64
2023/01/28 04:12:14;;;;;;;16.83;6.22;;;;;;;;;;6152860;23;20704;-64
2023/01/28 04:14:43;;;;;;;15.30;6.38;;;;;;;;;;6147263;23;20052;-65
2023/01/28 04:17:10;;;;;;;15.65;6.63;;;;;;;;;;6154617;23;20044;-65
2023/01/28 04:19:39;;;;;;;16.97;6.80;;;;;;;;;;6145627;23;20013;-64
2023/01/28 04:22:10;;;;;;;17.38;6.20;;;;;;;;;;6155702;23;20488;-64
2023/01/28 04:24:38;;;;;;;17.77;6.85;;;;;;;;;;6147069;23;20463;-64
2023/01/28 04:27:06;;;;;;;21.90;6.25;;;;;;;;;;6156605;23;20088;-65
2023/01/28 04:29:33;;;;;;;20.20;6.57;;;;;;;;;;6154258;23;20421;-65
2023/01/28 04:32:01;;;;;;;21.50;6.70;;;;;;;;;;6151197;23;20448;-65
2023/01/28 04:34:28;;;;;;;14.88;6.05;;;;;;;;;;6141498;23;20169;-65
2023/01/28 04:36:56;;;;;;;16.30;6.35;;;;;;;;;;6152660;23;20017;-65
2023/01/28 04:39:25;;;;;;;15.77;6.07;;;;;;;;;;6144187;23;20503;-65
2023/01/28 04:41:53;;;;;;;15.90;6.25;;;;;;;;;;6160515;23;20021;-65
2023/01/28 04:44:25;;;;;;;16.03;6.10;;;;;;;;;;6159715;23;20041;-64
2023/01/28 04:46:53;;;;;;;16.20;6.70;;;;;;;;;;6153469;23;20449;-66
2023/01/28 04:49:21;;;;;;;17.52;6.60;;;;;;;;;;6154213;23;20021;-65
2023/01/28 04:51:48;;;;;;;17.85;6.07;;;;;;;;;;6145491;23;20044;-64
2023/01/28 04:54:16;;;;;;;17.17;6.18;;;;;;;;;;6157856;23;20040;-62
2023/01/28 04:56:45;;;;;;;15.77;6.13;;;;;;;;;;6143675;23;20075;-64
2023/01/28 04:59:13;;;;;;;20.10;6.93;;;;;;;;;;6155284;23;20128;-64
2023/01/28 05:01:40;;;;;;;14.13;5.57;;;;;;;;;;6151776;23;20029;-64
2023/01/28 05:04:08;;;;;;;12.88;5.18;;;;;;;;;;6150449;23;20021;-64
2023/01/28 05:06:36;;;;;;;15.63;5.82;;;;;;;;;;6148993;23;20092;-62
2023/01/28 05:09:04;;;;;;;15.67;6.70;;;;;;;;;;6153125;23;20288;-65
2023/01/28 05:11:31;;;;;;;13.73;6.30;;;;;;;;;;6146613;23;20496;-66
2023/01/28 05:14:01;;;;;;;15.85;6.13;;;;;;;;;;6150890;23;20460;-65
2023/01/28 05:16:30;;;;;;;18.65;6.47;;;;;;;;;;6142305;23;20723;-64
2023/01/28 05:18:58;;;;;;;22.80;6.25;;;;;;;;;;6154477;23;20129;-64
2023/01/28 05:21:26;;;;;;;16.80;6.00;;;;;;;;;;6146592;23;20052;-64
2023/01/28 05:23:53;;;;;;;17.92;6.45;;;;;;;;;;6127034;23;20151;-64
2023/01/28 05:26:21;;;;;;;16.48;6.15;;;;;;;;;;6140298;23;20072;-65
2023/01/28 05:28:50;;;;;;;21.08;6.00;;;;;;;;;;6154859;23;20041;-65
2023/01/28 05:31:19;;;;;;;13.50;5.50;;;;;;;;;;6143470;23;20091;-64
2023/01/28 05:33:47;;;;;;;15.57;5.80;;;;;;;;;;6151368;23;20048;-66
2023/01/28 05:36:15;;;;;;;16.65;5.97;;;;;;;;;;6120496;23;20013;-66
2023/01/28 05:38:47;;;;;;;18.13;5.35;;;;;;;;;;6125681;23;20027;-66
2023/01/28 05:41:14;;;;;;;16.98;5.78;;;;;;;;;;6156531;23;20095;-66
2023/01/28 05:43:42;;;;;;;17.40;6.53;;;;;;;;;;6148095;23;20485;-65
2023/01/28 05:46:09;;;;;;;14.73;5.57;;;;;;;;;;6156931;23;20021;-65
2023/01/28 05:48:39;;;;;;;15.73;5.85;;;;;;;;;;6145450;23;20040;-65
2023/01/28 05:51:06;;;;;;;15.40;5.72;;;;;;;;;;6153954;23;20120;-65
2023/01/28 05:53:34;;;;;;;12.07;5.20;;;;;;;;;;6146652;23;20009;-65
2023/01/28 05:56:02;;;;;;;18.13;5.75;;;;;;;;;;6156906;23;20097;-65
2023/01/28 05:58:30;;;;;;;15.47;5.80;;;;;;;;;;6149656;23;20456;-66
2023/01/28 06:00:58;;;;;;;15.18;5.40;;;;;;;;;;6159615;23;20021;-66
2023/01/28 06:03:26;;;;;;;19.92;6.32;;;;;;;;;;6150977;23;20013;-65
2023/01/28 06:05:55;;;;;;;18.48;6.38;;;;;;;;;;6156326;23;20020;-66
2023/01/28 06:08:22;;;;;;;20.65;6.57;;;;;;;;;;6139793;23;20013;-65
2023/01/28 06:10:52;;;;;;;17.53;6.20;;;;;;;;;;6154515;23;20429;-66
2023/01/28 06:13:20;;;;;;;16.67;5.45;;;;;;;;;;6158787;23;20021;-65
2023/01/28 06:15:49;;;;;;;15.82;5.90;;;;;;;;;;6126666;23;20627;-65
2023/01/28 06:18:16;;;;;;;16.63;6.20;;;;;;;;;;6148428;23;20143;-64
2023/01/28 06:20:44;;;;;;;19.75;6.28;;;;;;;;;;6157419;23;20532;-64
2023/01/28 06:23:13;;;;;;;17.00;5.60;;;;;;;;;;6150278;23;20025;-66
2023/01/28 06:25:41;;;;;;;16.48;5.93;;;;;;;;;;6160722;23;20031;-66
2023/01/28 06:28:09;;;;;;;15.48;5.97;;;;;;;;;;6140886;23;20040;-65
2023/01/28 06:30:41;;;;;;;17.02;6.25;;;;;;;;;;6157430;23;20016;-63
2023/01/28 06:33:09;;;;;;;16.17;5.78;;;;;;;;;;6157933;23;20020;-66
2023/01/28 06:35:37;;;;;;;16.00;5.87;;;;;;;;;;6150108;23;20067;-66
2023/01/28 06:38:04;;;;;;;18.10;6.15;;;;;;;;;;6152414;23;20024;-66
2023/01/28 06:40:34;;;;;;;15.35;5.50;;;;;;;;;;6146803;23;20025;-64
2023/01/28 06:43:01;;;;;;;16.90;6.22;;;;;;;;;;6155282;23;20021;-66
2023/01/28 06:45:29;;;;;;;15.05;6.03;;;;;;;;;;6150592;23;20064;-66
2023/01/28 06:47:57;;;;;;;14.03;5.43;;;;;;;;;;6159512;23;20045;-66
2023/01/28 06:50:28;;;;;;;15.15;5.80;;;;;;;;;;6113265;23;20072;-65
2023/01/28 06:52:56;;;;;;;17.90;6.45;;;;;;;;;;6133088;23;20081;-66
2023/01/28 06:55:24;;;;;;;17.85;6.57;;;;;;;;;;6110992;23;20045;-65
2023/01/28 06:57:53;;;;;;;15.80;5.32;;;;;;;;;;6122507;23;20020;-65
2023/01/28 07:00:20;;;;;;;19.27;6.30;;;;;;;;;;6126626;23;20020;-65
2023/01/28 07:02:48;;;;;;;14.98;5.32;;;;;;;;;;6124010;23;20072;-65
2023/01/28 07:05:16;;;;;;;19.40;6.45;;;;;;;;;;6092834;23;20128;-58
2023/01/28 07:07:45;;;;;;;20.73;6.35;;;;;;;;;;6123406;23;20021;-66
2023/01/28 07:10:13;;;;;;;18.80;6.93;;;;;;;;;;6127252;23;20339;-65
2023/01/28 07:12:41;;;;;;;20.10;5.70;;;;;;;;;;6117814;23;20013;-65
2023/01/28 07:15:13;;;;;;;17.55;6.82;;;;;;;;;;6122618;23;20026;-65
2023/01/28 07:17:42;;;;;;;16.95;5.55;;;;;;;;;;6126463;23;20017;-65
2023/01/28 07:20:13;;;;;;;17.80;6.88;;;;;;;;;;6123818;23;20357;-65
2023/01/28 07:22:41;;;;;;;19.27;6.25;;;;;;;;;;6122709;23;20104;-65
2023/01/28 07:25:10;;;;;;;16.30;6.40;;;;;;;;;;6128047;23;20022;-65
2023/01/28 07:27:37;;;;;;;18.10;6.47;;;;;;;;;;6116996;23;20013;-65
2023/01/28 07:30:05;;;;;;;17.27;6.85;;;;;;;;;;6131479;23;20020;-66
2023/01/28 07:32:35;;;;;;;18.45;6.88;;;;;;;;;;6113902;23;20109;-65
2023/01/28 07:35:02;;;;;;;19.60;6.95;;;;;;;;;;6126229;23;20048;-65
2023/01/28 07:37:30;;;;;;;17.67;7.07;;;;;;;;;;6118762;23;20574;-65
2023/01/28 07:39:58;;;;;;;21.13;7.30;;;;;;;;;;6131828;23;20041;-65
2023/01/28 07:42:25;;;;;;;18.05;6.47;;;;;;;;;;6115089;23;20523;-65
2023/01/28 07:44:53;;;;;;;18.05;6.45;;;;;;;;;;6121604;23;20045;-66
2023/01/28 07:47:21;;;;;;;21.85;7.22;;;;;;;;;;6117485;23;20013;-65
2023/01/28 07:49:50;;;;;;;18.80;6.80;;;;;;;;;;6143391;23;20064;-65
2023/01/28 07:52:18;;;;;;;18.98;7.10;;;;;;;;;;6152199;23;20456;-65
2023/01/28 07:54:46;;;;;;;20.92;7.32;;;;;;;;;;6154579;23;20017;-65
2023/01/28 07:57:13;;;;;;;17.13;6.40;;;;;;;;;;6147340;23;20017;-65
2023/01/28 07:59:42;;;;;;;17.30;7.50;;;;;;;;;;6154395;23;20515;-65
2023/01/28 08:02:11;;;;;;;19.57;7.47;;;;;;;;;;6150279;23;20056;-66
2023/01/28 08:04:39;;;;;;;30.98;7.10;;;;;;;;;;6144967;23;20013;-65
2023/01/28 08:07:08;;;;;;;19.38;6.97;;;;;;;;;;6155396;23;20348;-65
2023/01/28 08:09:36;;;;;;;16.85;6.95;;;;;;;;;;6147423;23;20025;-65
2023/01/28 08:12:04;;;;;;;17.83;6.47;;;;;;;;;;6129136;23;20075;-65
2023/01/28 08:14:32;;;;;;;18.83;6.93;;;;;;;;;;6154034;23;20492;-66
2023/01/28 08:17:00;;;;;;;22.60;6.88;;;;;;;;;;6155294;23;20021;-65
2023/01/28 08:19:28;;;;;;;17.77;7.57;;;;;;;;;;6147402;23;20096;-64
2023/01/28 08:21:56;;;;;;;19.15;6.82;;;;;;;;;;6157887;23;20055;-65
2023/01/28 08:24:25;;;;;;;18.98;7.18;;;;;;;;;;6147596;23;20044;-65
2023/01/28 08:26:53;;;;;;;20.00;6.63;;;;;;;;;;6158646;23;20020;-65
2023/01/28 08:29:20;;;;;;;17.85;6.60;;;;;;;;;;6152353;23;20504;-64
2023/01/28 08:31:48;;;;;;;19.33;7.30;;;;;;;;;;6157969;23;20356;-65
2023/01/28 08:34:16;;;;;;;20.70;7.05;;;;;;;;;;6150637;23;20347;-65
2023/01/28 08:36:43;;;;;;;17.80;7.10;;;;;;;;;;6160065;23;20040;-65
2023/01/28 08:39:11;;;;;;;20.77;6.80;;;;;;;;;;6150157;23;20048;-67
2023/01/28 08:41:40;;;;;;;20.30;7.50;;;;;;;;;;6163831;23;20075;-65
2023/01/28 08:44:08;;;;;;;18.92;6.70;;;;;;;;;;6147574;23;20048;-65
2023/01/28 08:46:35;;;;;;;17.80;6.55;;;;;;;;;;6146005;23;20013;-66
2023/01/28 08:49:03;;;;;;;17.92;7.28;;;;;;;;;;6110257;23;20021;-65
2023/01/28 08:51:31;;;;;;;18.40;6.40;;;;;;;;;;6128444;23;20080;-66
2023/01/28 08:53:59;;;;;;;18.17;6.45;;;;;;;;;;6120408;23;20017;-65
2023/01/28 08:56:29;;;;;;;23.17;7.43;;;;;;;;;;6125819;23;20014;-66
2023/01/28 08:58:58;;;;;;;21.08;7.50;;;;;;;;;;6129100;23;20018;-65
2023/01/28 09:01:28;;;;;;;17.17;6.75;;;;;;;;;;6121239;23;20028;-64
2023/01/28 09:03:55;;;;;;;18.70;6.57;;;;;;;;;;6126062;23;20029;-65
2023/01/28 09:06:23;;;;;;;18.90;6.60;;;;;;;;;;6113112;23;20021;-65
2023/01/28 09:08:51;;;;;;;17.02;6.32;;;;;;;;;;6127643;23;20013;-65
2023/01/28 09:11:19;;;;;;;16.10;5.97;;;;;;;;;;6122791;23;20017;-65
2023/01/28 09:13:47;;;;;;;21.90;7.38;;;;;;;;;;6131771;23;20018;-65
2023/01/28 09:16:16;;;;;;;20.63;7.30;;;;;;;;;;6119256;23;20013;-65
2023/01/28 09:18:44;;;;;;;19.08;6.35;;;;;;;;;;6128559;23;20467;-63
2023/01/28 09:21:11;;;;;;;17.30;6.38;;;;;;;;;;6119888;23;20081;-64
2023/01/28 09:23:39;;;;;;;18.20;6.40;;;;;;;;;;6129446;23;20322;-65
2023/01/28 09:26:07;;;;;;;18.98;7.18;;;;;;;;;;6121272;23;20017;-65
2023/01/28 09:28:37;;;;;;;13.90;6.03;;;;;;;;;;6124274;23;20088;-66
2023/01/28 09:31:06;;;;;;;16.90;6.32;;;;;;;;;;6111645;23;20459;-65
2023/01/28 09:33:36;;;;;;;20.58;6.05;;;;;;;;;;6129156;23;20068;-64
2023/01/28 09:36:05;;;;;;;16.70;6.50;;;;;;;;;;6114770;23;20100;-65
2023/01/28 09:38:35;;;;;;;17.50;5.90;;;;;;;;;;6125771;23;20088;-64
2023/01/28 09:41:03;;;;;;;17.37;6.60;;;;;;;;;;6119365;23;20036;-65
2023/01/28 09:43:39;;;;;;;17.15;6.90;;;;;;;;;;6126204;23;20430;-64
2023/01/28 09:46:10;;;;;;;15.27;6.38;;;;;;;;;;6122246;23;20041;-66
2023/01/28 09:48:41;;;;;;;16.48;6.03;;;;;;;;;;6127855;23;20027;-64
2023/01/28 09:51:10;;;;;;;19.05;6.13;;;;;;;;;;6152208;23;20013;-64
2023/01/28 09:53:42;;;;;;;17.90;6.33;;;;;;;;;;6151769;23;20017;-64
2023/01/28 09:56:13;;;;;;;18.80;6.82;;;;;;;;;;6155165;23;20079;-64
2023/01/28 09:58:41;;;;;;;18.48;7.20;;;;;;;;;;6157755;23;20017;-67
2023/01/28 10:01:20;;;;;;;16.85;6.50;;;;;;;;;;6155463;23;20055;-66
2023/01/28 10:03:53;;;;;;;18.80;6.50;;;;;;;;;;6153750;23;20021;-64
2023/01/28 10:06:24;;;;;;;16.77;7.17;;;;;;;;;;6156064;23;20739;-64
2023/01/28 10:09:06;;;;;;;21.05;7.57;;;;;;;;;;6130550;23;20013;-65
2023/01/28 10:11:42;;;;;;;18.55;7.03;;;;;;;;;;6138496;23;20120;-64
2023/01/28 10:14:13;;;;;;;15.90;6.50;;;;;;;;;;6157824;23;20017;-65
2023/01/28 10:16:43;;;;;;;17.13;6.20;;;;;;;;;;6147304;23;20020;-65
2023/01/28 10:19:15;;;;;;;17.70;6.30;;;;;;;;;;6154670;23;20045;-66
2023/01/28 10:21:47;;;;;;;17.25;6.53;;;;;;;;;;6149560;23;20016;-65
2023/01/28 10:24:17;;;;;;;16.83;6.53;;;;;;;;;;6149916;23;20017;-65
2023/01/28 10:26:45;;;;;;;18.27;7.25;;;;;;;;;;6145922;23;20060;-65
2023/01/28 10:29:15;;;;;;;15.23;5.65;;;;;;;;;;6143836;23;20151;-65
2023/01/28 10:31:47;;;;;;;17.90;6.47;;;;;;;;;;6163992;23;20028;-66
2023/01/28 10:34:16;;;;;;;16.42;6.53;;;;;;;;;;6144572;23;20508;-65
2023/01/28 10:36:47;;;;;;;16.63;7.28;;;;;;;;;;6108495;23;20017;-65
2023/01/28 10:39:15;;;;;;;18.00;6.65;;;;;;;;;;6147570;23;20017;-65
2023/01/28 10:41:42;;;;;;;17.75;6.47;;;;;;;;;;6125059;23;20021;-64
2023/01/28 10:44:29;;;;;;;16.60;6.73;;;;;;;;;;6146849;23;20053;-64
2023/01/28 10:46:57;;;;;;;21.10;6.43;;;;;;;;;;6155235;23;20021;-63
2023/01/28 10:49:27;;;;;;;15.35;6.38;;;;;;;;;;6149822;23;20017;-64
2023/01/28 10:51:59;;;;;;;15.90;6.90;;;;;;;;;;6148920;23;20060;-66
2023/01/28 10:54:28;;;;;;;20.70;7.10;;;;;;;;;;6150837;23;20028;-64
2023/01/28 10:56:58;;;;;;;16.30;6.67;;;;;;;;;;6150053;23;20256;-65
2023/01/28 10:59:27;;;;;;;17.23;6.95;;;;;;;;;;6155357;23;20016;-64
2023/01/28 11:01:56;;;;;;;21.55;7.63;;;;;;;;;;6142475;23;20021;-64
2023/01/28 11:04:25;;;;;;;17.33;7.18;;;;;;;;;;6128011;23;20017;-63
2023/01/28 11:06:59;;;;;;;20.20;7.80;;;;;;;;;;6149206;23;20017;-65
2023/01/28 11:09:30;;;;;;;18.33;6.87;;;;;;;;;;6154009;23;20068;-64
2023/01/28 11:11:57;;;;;;;18.10;7.38;;;;;;;;;;6152797;23;20021;-63
2023/01/28 11:14:25;;;;;;;15.18;6.68;;;;;;;;;;6121387;23;20068;-64
2023/01/28 11:16:54;;;;;;;14.02;5.28;;;;;;;;;;6141725;23;20071;-63
2023/01/28 11:19:29;;;;;;;16.38;6.57;;;;;;;;;;6151561;23;20096;-63
2023/01/28 11:21:58;;;;;;;19.97;7.20;;;;;;;;;;6153021;23;20392;-63
2023/01/28 11:24:27;;;;;;;18.00;7.03;;;;;;;;;;6147634;23;20020;-64
2023/01/28 11:26:56;;;;;;;16.17;5.68;;;;;;;;;;6126243;23;20104;-63
2023/01/28 11:29:26;;;;;;;17.25;7.03;;;;;;;;;;6139454;23;20513;-63
2023/01/28 11:31:53;;;;;;;17.48;6.15;;;;;;;;;;6158570;23;20071;-64
2023/01/28 11:34:25;;;;;;;16.93;6.23;;;;;;;;;;6143545;23;20108;-64
2023/01/28 11:36:53;;;;;;;15.95;6.00;;;;;;;;;;6151541;23;20096;-65
2023/01/28 11:39:24;;;;;;;15.88;5.95;;;;;;;;;;6143372;23;20017;-64
2023/01/28 11:41:53;;;;;;;17.30;6.13;;;;;;;;;;6149372;23;20017;-65
2023/01/28 11:44:22;;;;;;;14.52;5.75;;;;;;;;;;6138033;23;20466;-64
2023/01/28 11:47:01;;;;;;;14.03;5.97;;;;;;;;;;6152190;23;20024;-65
2023/01/28 11:49:35;;;;;;;15.27;5.85;;;;;;;;;;6148852;23;20028;-63
2023/01/28 11:52:09;;;;;;;15.13;5.78;;;;;;;;;;6122356;23;20185;-64
2023/01/28 11:54:44;;;;;;;13.68;5.10;;;;;;;;;;6125976;23;20046;-63
2023/01/28 11:57:22;;;;;;;13.27;4.78;;;;;;;;;;6146309;23;20149;-63
2023/01/28 11:59:58;;;;;;;14.97;5.27;;;;;;;;;;6130334;23;20017;-63
2023/01/28 12:02:37;;;;;;;14.48;5.50;;;;;;;;;;6158999;23;20274;-63
2023/01/28 12:05:19;;;;;;;16.30;5.80;;;;;;;;;;6145385;23;20025;-63
2023/01/28 12:07:54;;;;;;;16.20;6.07;;;;;;;;;;6155016;23;20246;-65
2023/01/28 12:10:27;;;;;;;13.73;6.20;;;;;;;;;;6161448;23;20064;-63
2023/01/28 12:13:03;;;;;;;17.07;6.53;;;;;;;;;;6148890;23;20017;-63
2023/01/28 12:15:40;;;;;;;18.75;5.85;;;;;;;;;;6157477;23;20799;-63
2023/01/28 12:18:15;;;;;;;18.35;6.50;;;;;;;;;;6147804;23;20013;-62
2023/01/28 12:20:47;;;;;;;16.17;6.22;;;;;;;;;;6159331;23;20032;-62
2023/01/28 12:23:24;;;;;;;14.85;6.55;;;;;;;;;;6151710;23;20037;-64
2023/01/28 12:26:00;;;;;;;16.37;6.57;;;;;;;;;;6144347;23;20064;-65
2023/01/28 12:28:34;;;;;;;15.63;5.68;;;;;;;;;;6153609;23;20064;-65
2023/01/28 12:31:13;;;;;;;15.25;5.82;;;;;;;;;;6124226;23;20535;-65
2023/01/28 12:33:48;;;;;;;14.02;5.47;;;;;;;;;;6157024;23;20013;-65
2023/01/28 12:36:24;;;;;;;16.73;6.18;;;;;;;;;;6141608;23;20091;-59
2023/01/28 12:39:00;;;;;;;16.07;5.90;;;;;;;;;;6147199;23;20013;-64
2023/01/28 12:41:32;;;;;;;15.57;5.72;;;;;;;;;;6158456;23;20060;-64
2023/01/28 12:44:01;;;;;;;16.48;5.53;;;;;;;;;;6148968;23;20017;-63
2023/01/28 12:46:35;;;;;;;13.73;5.28;;;;;;;;;;6152844;23;20508;-65
2023/01/28 12:49:04;;;;;;;16.60;5.40;;;;;;;;;;6149749;23;20044;-65
2023/01/28 12:51:34;;;;;;;12.20;5.07;;;;;;;;;;6156832;23;20024;-65
2023/01/28 12:54:06;;;;;;;14.55;5.45;;;;;;;;;;6145998;23;20013;-65
2023/01/28 12:56:38;;;;;;;16.95;6.00;;;;;;;;;;6156807;23;20059;-65
2023/01/28 12:59:10;;;;;;;15.70;6.45;;;;;;;;;;6158166;23;20032;-65
2023/01/28 13:01:40;;;;;;;15.38;5.90;;;;;;;;;;6152382;23;20570;-64
2023/01/28 13:04:09;;;;;;;15.53;5.07;;;;;;;;;;6160108;23;20017;-65
2023/01/28 13:06:41;;;;;;;16.85;5.25;;;;;;;;;;6149748;23;20017;-65
2023/01/28 13:09:14;;;;;;;18.52;6.07;;;;;;;;;;6126259;23;20372;-64
2023/01/28 13:11:43;;;;;;;14.63;5.03;;;;;;;;;;6138494;23;20045;-65
2023/01/28 13:14:12;;;;;;;14.32;5.22;;;;;;;;;;6153782;23;20017;-66
2023/01/28 13:16:39;;;;;;;15.13;5.20;;;;;;;;;;6149709;23;20017;-64
2023/01/28 13:19:09;;;;;;;12.88;4.80;;;;;;;;;;6161323;23;20017;-64
2023/01/28 13:21:37;;;;;;;18.45;5.07;;;;;;;;;;6142668;23;20068;-57
2023/01/28 13:24:23;;;;;;;18.23;6.13;;;;;;;;;;6147439;23;20356;-66
2023/01/28 13:26:54;;;;;;;14.50;5.47;;;;;;;;;;6154616;23;20037;-65
2023/01/28 13:29:28;;;;;;;14.20;5.47;;;;;;;;;;6149695;23;20512;-64
2023/01/28 13:31:58;;;;;;;13.02;5.20;;;;;;;;;;6157810;23;20891;-65
2023/01/28 13:34:35;;;;;;;13.10;5.38;;;;;;;;;;6147714;23;20055;-65
2023/01/28 13:37:08;;;;;;;14.75;4.80;;;;;;;;;;6161456;23;20523;-65
2023/01/28 13:39:45;;;;;;;12.60;4.85;;;;;;;;;;6153786;23;20013;-65
2023/01/28 13:42:25;;;;;;;14.17;5.40;;;;;;;;;;6146311;23;20042;-65
2023/01/28 13:44:53;;;;;;;14.85;5.15;;;;;;;;;;6154525;23;20083;-64
2023/01/28 13:47:27;;;;;;;9.05;3.30;;;;;;;;;;6141017;23;20045;-64
2023/01/28 13:49:56;;;;;;;9.80;3.97;;;;;;;;;;6149187;23;20124;-64
2023/01/28 13:52:26;;;;;;;11.48;4.28;;;;;;;;;;6147354;23;20095;-66
2023/01/28 13:54:56;;;;;;;15.27;4.53;;;;;;;;;;6153715;23;20074;-66
2023/01/28 13:57:41;;;;;;;15.80;4.38;;;;;;;;;;6147559;23;20534;-64
2023/01/28 14:00:14;;;;;;;15.27;4.53;;;;;;;;;;6149305;23;20024;-64
2023/01/28 14:02:57;;;;;;;12.30;4.13;;;;;;;;;;6152648;23;20389;-65
2023/01/28 14:05:35;;;;;;;11.10;3.63;;;;;;;;;;6091232;23;20350;-64
2023/01/28 14:08:16;;;;;;;10.77;3.50;;;;;;;;;;6103475;23;20040;-64
2023/01/28 14:10:50;;;;;;;9.93;3.53;;;;;;;;;;6144615;23;20021;-65
2023/01/28 14:13:31;;;;;;;13.75;4.25;;;;;;;;;;6153027;23;20017;-66
2023/01/28 14:16:08;;;;;;;13.65;3.85;;;;;;;;;;6151341;23;20465;-64
2023/01/28 14:18:38;;;;;;;14.63;4.07;;;;;;;;;;6143986;23;20042;-65
2023/01/28 14:21:11;;;;;;;14.40;4.73;;;;;;;;;;6154170;23;20064;-65
2023/01/28 14:23:43;;;;;;;12.85;3.97;;;;;;;;;;6114857;23;20100;-65
2023/01/28 14:26:17;;;;;;;12.77;4.07;;;;;;;;;;6147888;23;20577;-65
2023/01/28 14:28:48;;;;;;;15.40;4.55;;;;;;;;;;6148798;23;20389;-65
2023/01/28 14:31:21;;;;;;;13.18;4.43;;;;;;;;;;6148901;23;20468;-66
2023/01/28 14:33:49;;;;;;;14.23;5.30;;;;;;;;;;6150385;23;20013;-64
2023/01/28 14:36:16;;;;;;;14.05;4.68;;;;;;;;;;6147890;23;20047;-59
2023/01/28 14:38:48;;;;;;;13.10;4.55;;;;;;;;;;6151628;23;20101;-66
2023/01/28 14:41:21;;;;;;;11.82;4.60;;;;;;;;;;6152482;23;20044;-66
2023/01/28 14:43:48;;;;;;;13.68;5.55;;;;;;;;;;6153814;23;20020;-65
2023/01/28 14:46:22;;;;;;;11.10;4.63;;;;;;;;;;6153924;23;20048;-64
2023/01/28 14:48:55;;;;;;;14.70;4.82;;;;;;;;;;6136101;23;20484;-65
2023/01/28 14:51:36;;;;;;;14.18;5.55;;;;;;;;;;6147121;23;20395;-64
2023/01/28 14:54:17;;;;;;;15.60;5.63;;;;;;;;;;6151717;23;20017;-65
2023/01/28 14:56:51;;;;;;;14.02;5.15;;;;;;;;;;6151116;23;20017;-65
2023/01/28 14:59:20;;;;;;;9.63;3.30;;;;;;;;;;6146415;23;20447;-65
2023/01/28 15:01:55;;;;;;;16.40;5.00;;;;;;;;;;6139687;23;20032;-64
2023/01/28 15:04:23;;;;;;;12.95;4.97;;;;;;;;;;6149033;23;20023;-66
2023/01/28 15:06:51;;;;;;;13.48;5.35;;;;;;;;;;6142045;23;20435;-67
2023/01/28 15:09:21;;;;;;;15.52;5.28;;;;;;;;;;6147495;23;20024;-67
2023/01/28 15:11:51;;;;;;;17.87;5.13;;;;;;;;;;6146655;23;20092;-66
2023/01/28 15:14:22;;;;;;;12.85;5.40;;;;;;;;;;6147110;23;20044;-67
2023/01/28 15:16:52;;;;;;;18.20;5.10;;;;;;;;;;6130230;23;20398;-67